Time;durP1;ratioP1;P1;durP2;ratioP2;P2;SDS_P1;SDS_P2;PMS_P1;PMS_P2;Temp;Humidity;BMP_temperature;BMP_pressure;BME280_temperature;BME280_humidity;BME280_pressure;Samples;Min_cycle;Max_cycle;Signal;HPM_P1;HPM_P2
2022/05/31 00:01:32;;;;;;;0.73;0.40;;;17.10;99.90;;;;;;5073307;28;20267;-69
2022/05/31 00:04:00;;;;;;;0.30;0.30;;;17.30;99.90;;;;;;5073391;28;20217;-68
2022/05/31 00:06:28;;;;;;;0.60;0.40;;;17.50;99.90;;;;;;5071749;28;20226;-68
2022/05/31 00:08:55;;;;;;;0.67;0.67;;;17.70;99.90;;;;;;5071859;28;20193;-69
2022/05/31 00:11:23;;;;;;;0.43;0.30;;;17.80;99.90;;;;;;5057164;28;20195;-70
2022/05/31 00:13:51;;;;;;;1.07;0.30;;;18.10;99.90;;;;;;5073132;28;20173;-69
2022/05/31 00:16:19;;;;;;;1.80;0.40;;;18.20;99.90;;;;;;5073059;28;20186;-70
2022/05/31 00:18:47;;;;;;;0.30;0.30;;;18.20;99.90;;;;;;5067153;28;20251;-69
2022/05/31 00:21:14;;;;;;;0.97;0.40;;;18.10;99.90;;;;;;5071067;28;20195;-68
2022/05/31 00:23:43;;;;;;;1.17;0.30;;;17.80;99.90;;;;;;5072957;28;20594;-69
2022/05/31 00:26:11;;;;;;;1.47;0.37;;;17.90;99.90;;;;;;5061920;28;20220;-70
2022/05/31 00:28:39;;;;;;;0.33;0.30;;;18.30;99.90;;;;;;5053877;28;20192;-70
2022/05/31 00:31:08;;;;;;;0.87;0.40;;;18.20;99.90;;;;;;5052891;28;20194;-69
2022/05/31 00:33:36;;;;;;;0.30;0.30;;;18.30;99.90;;;;;;5052741;28;20539;-71
2022/05/31 00:36:05;;;;;;;0.60;0.30;;;18.60;99.90;;;;;;5055371;28;20216;-68
2022/05/31 00:38:33;;;;;;;0.83;0.47;;;18.90;99.90;;;;;;5072225;28;20183;-69
2022/05/31 00:41:24;;;;;;;0.53;0.40;;;18.40;99.90;;;;;;5052594;28;20181;-68
2022/05/31 00:44:19;;;;;;;1.93;0.40;;;17.90;99.90;;;;;;5052521;28;20682;-71
2022/05/31 00:46:54;;;;;;;2.33;0.50;;;17.80;99.90;;;;;;5052379;28;20777;-70
2022/05/31 00:49:50;;;;;;;1.50;0.50;;;18.10;99.90;;;;;;5062617;28;20263;-70
2022/05/31 00:52:32;;;;;;;0.30;0.30;;;18.60;99.90;;;;;;5070031;28;20543;-69
2022/05/31 00:55:12;;;;;;;0.40;0.40;;;18.40;99.90;;;;;;5054062;28;20208;-69
2022/05/31 00:57:45;;;;;;;0.30;0.30;;;18.60;99.90;;;;;;5052400;28;20172;-69
2022/05/31 01:00:16;;;;;;;3.63;0.60;;;18.30;99.90;;;;;;5066756;28;20680;-69
2022/05/31 01:02:46;;;;;;;0.50;0.40;;;18.60;99.90;;;;;;5072266;28;20190;-68
2022/05/31 01:05:16;;;;;;;1.20;0.30;;;18.70;99.90;;;;;;5071931;28;20261;-69
2022/05/31 01:07:44;;;;;;;1.80;0.40;;;18.70;99.90;;;;;;5072192;28;20654;-69
2022/05/31 01:10:13;;;;;;;1.90;0.40;;;18.90;99.90;;;;;;5071314;28;20183;-69
2022/05/31 01:12:44;;;;;;;3.23;0.43;;;18.90;99.90;;;;;;5072082;28;20202;-68
2022/05/31 01:15:14;;;;;;;2.80;0.40;;;19.20;99.90;;;;;;5071937;28;20168;-69
2022/05/31 01:17:43;;;;;;;0.30;0.30;;;19.10;99.90;;;;;;5071105;28;20558;-69
2022/05/31 01:20:16;;;;;;;0.90;0.40;;;19.40;99.90;;;;;;5081937;28;20179;-70
2022/05/31 01:22:50;;;;;;;0.20;0.20;;;19.50;99.90;;;;;;5071417;28;20240;-69
2022/05/31 01:25:27;;;;;;;0.30;0.30;;;19.60;99.90;;;;;;5067941;28;20407;-69
2022/05/31 01:28:14;;;;;;;0.57;0.30;;;19.80;99.90;;;;;;5065797;28;20202;-69
2022/05/31 01:31:01;;;;;;;0.23;0.20;;;20.20;99.90;;;;;;5053005;28;20183;-69
2022/05/31 01:33:38;;;;;;;0.20;0.20;;;19.70;99.90;;;;;;5069652;28;20233;-70
2022/05/31 01:36:21;;;;;;;3.50;0.30;;;19.60;99.90;;;;;;5071466;28;20682;-69
2022/05/31 01:38:55;;;;;;;0.20;0.20;;;19.80;99.90;;;;;;5067577;28;20234;-70
2022/05/31 01:41:49;;;;;;;2.00;0.40;;;20.10;99.90;;;;;;5069286;28;20216;-69
2022/05/31 01:44:19;;;;;;;1.03;0.30;;;19.30;99.90;;;;;;5057333;28;20184;-69
2022/05/31 01:46:49;;;;;;;0.30;0.30;;;19.50;99.90;;;;;;5051599;28;20217;-69
2022/05/31 01:49:17;;;;;;;1.30;0.30;;;19.40;99.90;;;;;;5055889;28;20187;-69
2022/05/31 01:51:46;;;;;;;0.33;0.30;;;19.80;99.90;;;;;;5054511;28;20657;-69
2022/05/31 01:54:17;;;;;;;0.53;0.30;;;19.50;99.90;;;;;;5068510;28;20556;-70
2022/05/31 01:56:46;;;;;;;1.27;0.30;;;19.30;99.90;;;;;;5068104;28;20177;-69
2022/05/31 01:59:16;;;;;;;9.03;1.53;;;19.10;99.90;;;;;;5069384;28;20186;-70
2022/05/31 02:01:46;;;;;;;1.37;0.60;;;19.10;99.90;;;;;;5050818;28;20634;-69
2022/05/31 02:04:17;;;;;;;1.70;0.40;;;19.10;99.90;;;;;;5057114;28;20190;-68
2022/05/31 02:06:45;;;;;;;2.67;0.40;;;18.60;99.90;;;;;;5071251;28;20244;-70
2022/05/31 02:09:15;;;;;;;0.50;0.40;;;18.60;99.90;;;;;;5071391;28;20647;-69
2022/05/31 02:11:43;;;;;;;0.97;0.40;;;18.90;99.90;;;;;;5071310;28;20179;-68
2022/05/31 02:14:11;;;;;;;0.60;0.30;;;19.30;99.90;;;;;;5071380;28;20175;-69
2022/05/31 02:16:39;;;;;;;0.40;0.40;;;19.10;99.90;;;;;;5071321;28;20206;-68
2022/05/31 02:19:18;;;;;;;0.83;0.40;;;19.10;99.90;;;;;;5069912;28;20228;-68
2022/05/31 02:21:45;;;;;;;0.20;0.20;;;19.10;99.90;;;;;;5071100;28;20258;-68
2022/05/31 02:24:15;;;;;;;0.97;0.37;;;18.70;99.90;;;;;;5071354;28;20176;-69
2022/05/31 02:26:44;;;;;;;0.30;0.30;;;19.10;99.90;;;;;;5070902;28;20708;-68
2022/05/31 02:29:16;;;;;;;1.93;0.20;;;19.40;99.90;;;;;;5071198;28;20291;-68
2022/05/31 02:31:44;;;;;;;1.07;0.40;;;19.10;99.90;;;;;;5071163;28;20177;-69
2022/05/31 02:34:14;;;;;;;0.20;0.20;;;18.90;99.90;;;;;;5071251;28;20260;-69
2022/05/31 02:36:42;;;;;;;0.60;0.30;;;19.00;99.90;;;;;;5071117;28;20613;-69
2022/05/31 02:39:10;;;;;;;0.80;0.40;;;18.70;99.90;;;;;;5070990;28;20176;-70
2022/05/31 02:41:38;;;;;;;0.80;0.30;;;18.10;99.90;;;;;;5071049;28;20583;-70
2022/05/31 02:44:06;;;;;;;0.50;0.30;;;17.90;99.90;;;;;;5071085;28;20170;-69
2022/05/31 02:46:35;;;;;;;0.47;0.30;;;17.50;99.90;;;;;;5070831;28;20215;-69
2022/05/31 02:49:04;;;;;;;0.30;0.30;;;17.10;99.90;;;;;;5071025;28;20186;-69
2022/05/31 02:51:41;;;;;;;0.40;0.40;;;16.80;99.90;;;;;;5070856;28;20176;-70
2022/05/31 02:54:10;;;;;;;0.30;0.30;;;16.80;99.90;;;;;;5071284;28;20195;-69
2022/05/31 02:56:38;;;;;;;0.40;0.40;;;16.70;99.90;;;;;;5069600;28;20183;-69
2022/05/31 02:59:06;;;;;;;0.47;0.40;;;16.90;99.90;;;;;;5070978;28;20183;-70
2022/05/31 03:01:37;;;;;;;1.93;0.40;;;16.90;99.90;;;;;;5069460;28;20181;-70
2022/05/31 03:04:06;;;;;;;0.57;0.50;;;17.10;99.90;;;;;;5070974;28;20199;-70
2022/05/31 03:06:34;;;;;;;1.33;0.40;;;17.20;99.90;;;;;;5070547;28;20212;-70
2022/05/31 03:09:02;;;;;;;0.83;0.40;;;17.60;99.90;;;;;;5070803;28;20177;-68
2022/05/31 03:11:54;;;;;;;0.30;0.30;;;17.80;99.90;;;;;;5070475;28;20176;-69
2022/05/31 03:14:40;;;;;;;0.97;0.30;;;18.20;99.90;;;;;;5064603;28;20208;-70
2022/05/31 03:17:19;;;;;;;0.63;0.40;;;18.20;99.90;;;;;;5055208;28;20219;-70
2022/05/31 03:20:03;;;;;;;0.40;0.40;;;18.80;99.90;;;;;;5057297;28;20269;-69
2022/05/31 03:22:42;;;;;;;0.30;0.30;;;18.80;99.90;;;;;;5056969;28;20180;-68
2022/05/31 03:25:18;;;;;;;1.03;0.50;;;18.80;99.90;;;;;;5063480;28;20182;-70
2022/05/31 03:27:47;;;;;;;0.30;0.30;;;18.40;99.90;;;;;;5064519;28;20187;-70
2022/05/31 03:30:15;;;;;;;0.30;0.30;;;17.70;99.90;;;;;;5072388;28;20187;-70
2022/05/31 03:32:44;;;;;;;0.30;0.30;;;16.90;99.90;;;;;;5074002;28;20176;-69
2022/05/31 03:35:12;;;;;;;0.33;0.33;;;16.40;99.90;;;;;;5058095;28;20209;-70
2022/05/31 03:37:40;;;;;;;0.40;0.40;;;17.10;99.90;;;;;;5056881;28;20189;-70
2022/05/31 03:40:09;;;;;;;2.33;0.43;;;18.20;99.90;;;;;;5054618;28;20195;-70
2022/05/31 03:42:37;;;;;;;1.80;0.40;;;18.30;99.90;;;;;;5058506;28;20184;-70
2022/05/31 03:45:05;;;;;;;0.30;0.30;;;17.50;99.90;;;;;;5062484;28;20179;-69
2022/05/31 03:47:33;;;;;;;0.87;0.53;;;16.70;99.90;;;;;;5067728;28;20191;-69
2022/05/31 03:50:01;;;;;;;2.67;0.40;;;16.40;99.90;;;;;;5091345;28;20171;-71
2022/05/31 03:52:28;;;;;;;0.30;0.30;;;16.10;99.90;;;;;;5093837;28;20214;-71
2022/05/31 03:54:56;;;;;;;2.30;0.30;;;16.60;99.90;;;;;;5066524;28;20176;-70
2022/05/31 03:57:24;;;;;;;2.30;0.40;;;16.70;99.90;;;;;;5063588;28;20182;-69
2022/05/31 03:59:51;;;;;;;0.70;0.30;;;16.60;99.90;;;;;;5056349;28;20188;-69
2022/05/31 04:02:19;;;;;;;0.50;0.40;;;16.70;99.90;;;;;;5069193;28;20203;-69
2022/05/31 04:04:47;;;;;;;0.63;0.40;;;16.70;99.90;;;;;;5054266;28;20193;-69
2022/05/31 04:07:14;;;;;;;3.70;0.40;;;16.60;99.90;;;;;;5064348;28;20251;-70
2022/05/31 04:09:42;;;;;;;1.07;0.40;;;16.60;99.90;;;;;;5061997;28;20234;-70
2022/05/31 04:12:10;;;;;;;0.87;0.40;;;16.10;99.90;;;;;;5061227;28;20649;-69
2022/05/31 04:14:38;;;;;;;0.30;0.30;;;15.70;99.90;;;;;;5058027;28;20191;-69
2022/05/31 04:17:05;;;;;;;0.47;0.40;;;15.80;99.90;;;;;;5064051;28;20191;-70
2022/05/31 04:19:34;;;;;;;0.83;0.60;;;15.80;99.90;;;;;;5072669;28;20215;-70
2022/05/31 04:22:01;;;;;;;0.30;0.30;;;15.60;99.90;;;;;;5060023;28;20184;-68
2022/05/31 04:24:29;;;;;;;1.40;0.40;;;15.30;99.90;;;;;;5062660;28;20234;-69
2022/05/31 04:26:58;;;;;;;1.37;0.50;;;15.00;99.90;;;;;;5061769;28;20214;-71
2022/05/31 04:29:25;;;;;;;0.73;0.40;;;15.10;99.90;;;;;;5070813;28;20180;-70
2022/05/31 04:31:53;;;;;;;0.90;0.40;;;15.10;99.90;;;;;;5063307;28;20184;-69
2022/05/31 04:34:21;;;;;;;0.83;0.50;;;15.10;99.90;;;;;;5054780;28;20188;-69
2022/05/31 04:36:48;;;;;;;1.37;0.50;;;14.90;99.90;;;;;;5053800;28;20200;-69
2022/05/31 04:39:16;;;;;;;0.67;0.47;;;15.30;99.90;;;;;;5052524;28;20187;-69
2022/05/31 04:41:44;;;;;;;2.73;0.50;;;15.90;99.90;;;;;;5054211;28;20169;-69
2022/05/31 04:44:11;;;;;;;1.23;0.40;;;16.50;99.90;;;;;;5070984;28;20245;-69
2022/05/31 04:46:40;;;;;;;1.90;0.30;;;16.40;99.90;;;;;;5072208;28;20301;-70
2022/05/31 04:49:07;;;;;;;1.70;0.50;;;16.30;99.90;;;;;;5072447;28;20175;-70
2022/05/31 04:51:35;;;;;;;0.30;0.30;;;16.80;99.90;;;;;;5072265;28;20180;-71
2022/05/31 04:54:05;;;;;;;1.83;0.50;;;16.50;99.90;;;;;;5072440;28;20171;-70
2022/05/31 04:56:33;;;;;;;0.50;0.50;;;16.40;99.90;;;;;;5072245;28;20180;-71
2022/05/31 04:59:02;;;;;;;1.10;0.50;;;16.40;99.90;;;;;;5072072;28;20174;-71
2022/05/31 05:01:29;;;;;;;1.67;0.50;;;16.60;99.90;;;;;;5072248;28;20194;-71
2022/05/31 05:03:57;;;;;;;1.00;0.40;;;16.30;99.90;;;;;;5072140;28;20226;-71
2022/05/31 05:06:25;;;;;;;1.60;0.40;;;15.90;99.90;;;;;;5071779;28;20250;-71
2022/05/31 05:08:53;;;;;;;1.07;0.50;;;15.90;99.90;;;;;;5072093;28;20794;-71
2022/05/31 05:11:23;;;;;;;0.67;0.47;;;15.60;99.90;;;;;;5070321;28;20557;-71
2022/05/31 05:13:54;;;;;;;1.07;0.43;;;15.40;99.90;;;;;;5072140;28;20229;-71
2022/05/31 05:16:21;;;;;;;1.17;0.53;;;15.30;99.90;;;;;;5071203;28;20207;-71
2022/05/31 05:18:49;;;;;;;2.67;0.50;;;15.20;99.90;;;;;;5057585;28;20781;-71
2022/05/31 05:21:18;;;;;;;0.50;0.50;;;14.90;99.90;;;;;;5051884;28;20184;-71
2022/05/31 05:23:46;;;;;;;1.53;0.50;;;14.70;99.90;;;;;;5052031;28;20789;-71
2022/05/31 05:26:14;;;;;;;2.87;0.50;;;14.50;99.90;;;;;;5051596;28;20573;-71
2022/05/31 05:31:40;;;;;;;1.90;0.70;;;14.00;99.90;;;;;;5061095;28;20301;-71
2022/05/31 05:34:08;;;;;;;0.73;0.50;;;13.60;99.90;;;;;;5068643;28;20183;-70
2022/05/31 05:36:36;;;;;;;2.33;0.73;;;13.10;99.90;;;;;;5055047;28;20225;-69
2022/05/31 05:39:10;;;;;;;1.73;0.60;;;12.80;99.90;;;;;;5070238;28;20187;-68
2022/05/31 05:41:40;;;;;;;1.07;0.77;;;12.20;99.90;;;;;;5071641;28;20666;-69
2022/05/31 05:44:09;;;;;;;0.70;0.70;;;12.00;99.90;;;;;;5070746;28;20187;-69
2022/05/31 05:46:37;;;;;;;3.37;1.13;;;11.60;99.90;;;;;;5071956;28;20207;-68
2022/05/31 05:49:04;;;;;;;2.97;0.90;;;11.50;99.90;;;;;;5072467;28;20196;-67
2022/05/31 05:51:33;;;;;;;2.57;0.90;;;11.30;99.90;;;;;;5071351;28;20710;-67
2022/05/31 05:54:02;;;;;;;2.03;0.80;;;11.20;99.90;;;;;;5071443;28;20168;-68
2022/05/31 05:56:31;;;;;;;0.57;0.53;;;11.10;99.90;;;;;;5071323;28;20192;-68
2022/05/31 05:58:58;;;;;;;1.87;0.50;;;11.00;99.90;;;;;;5071478;28;20504;-67
2022/05/31 06:01:36;;;;;;;1.90;0.60;;;11.00;99.90;;;;;;5070910;28;20181;-67
2022/05/31 06:04:10;;;;;;;1.80;0.60;;;10.80;99.90;;;;;;5069879;28;20294;-68
2022/05/31 06:06:42;;;;;;;0.87;0.80;;;10.90;99.90;;;;;;5071249;28;20232;-68
2022/05/31 06:09:19;;;;;;;0.67;0.53;;;10.80;99.90;;;;;;5074741;28;20180;-68
2022/05/31 06:12:03;;;;;;;4.40;0.80;;;10.70;99.90;;;;;;5070568;28;20632;-68
2022/05/31 06:14:45;;;;;;;1.07;0.60;;;10.70;99.90;;;;;;5069043;28;20198;-68
2022/05/31 06:17:22;;;;;;;1.40;0.50;;;10.70;99.90;;;;;;5070469;28;20228;-68
2022/05/31 06:19:51;;;;;;;1.97;1.17;;;10.70;99.90;;;;;;5072719;28;20172;-68
2022/05/31 06:22:20;;;;;;;0.80;0.60;;;10.80;99.90;;;;;;5070543;28;20642;-68
2022/05/31 06:24:49;;;;;;;0.47;0.47;;;10.80;99.90;;;;;;5070273;28;20182;-69
2022/05/31 06:27:16;;;;;;;1.37;0.60;;;10.90;99.90;;;;;;5069790;28;20217;-68
2022/05/31 06:29:44;;;;;;;0.70;0.70;;;11.10;99.90;;;;;;5069509;28;20176;-68
2022/05/31 06:32:14;;;;;;;0.63;0.60;;;11.00;99.90;;;;;;5069215;28;20240;-68
2022/05/31 06:34:42;;;;;;;1.90;0.60;;;11.00;99.90;;;;;;5070757;28;20208;-69
2022/05/31 06:37:13;;;;;;;1.03;0.60;;;11.00;99.90;;;;;;5070914;28;20175;-69
2022/05/31 06:39:42;;;;;;;0.93;0.60;;;11.00;99.90;;;;;;5070625;28;20592;-69
2022/05/31 06:42:11;;;;;;;0.97;0.70;;;11.00;99.90;;;;;;5070891;28;20635;-69
2022/05/31 06:44:41;;;;;;;1.80;0.90;;;11.00;99.90;;;;;;5070718;28;20188;-67
2022/05/31 06:47:10;;;;;;;2.87;0.83;;;10.90;99.90;;;;;;5070080;28;20218;-69
2022/05/31 06:49:38;;;;;;;3.53;0.80;;;10.80;99.90;;;;;;5072864;28;20176;-68
2022/05/31 06:57:44;;;;;;;1.77;0.60;;;10.90;99.90;;;;;;5073665;28;20191;-67
2022/05/31 07:00:16;;;;;;;0.60;0.60;;;10.90;99.90;;;;;;5071913;28;20186;-68
2022/05/31 07:02:44;;;;;;;0.67;0.67;;;10.80;99.90;;;;;;5073894;28;20202;-68
2022/05/31 07:05:12;;;;;;;0.60;0.60;;;10.90;99.90;;;;;;5074018;28;20187;-68
2022/05/31 07:07:41;;;;;;;0.50;0.50;;;10.80;99.90;;;;;;5074358;28;20537;-68
2022/05/31 07:10:10;;;;;;;1.80;0.70;;;11.00;99.90;;;;;;5074387;28;20212;-68
2022/05/31 07:12:40;;;;;;;0.50;0.50;;;10.90;99.90;;;;;;5073792;28;20548;-67
2022/05/31 07:15:08;;;;;;;0.80;0.67;;;10.90;99.90;;;;;;5074027;28;20225;-68
2022/05/31 07:17:36;;;;;;;1.80;0.70;;;10.80;99.90;;;;;;5073556;28;20231;-67
2022/05/31 07:20:06;;;;;;;2.53;0.60;;;10.80;99.90;;;;;;5074137;28;20181;-67
2022/05/31 07:22:34;;;;;;;3.93;0.77;;;10.80;99.90;;;;;;5074083;28;20182;-68
2022/05/31 07:25:02;;;;;;;3.30;1.13;;;10.70;99.90;;;;;;5073995;28;20193;-68
2022/05/31 07:27:30;;;;;;;0.73;0.73;;;10.60;99.90;;;;;;5073827;28;20241;-68
2022/05/31 07:29:57;;;;;;;1.37;0.73;;;10.50;99.90;;;;;;5074101;28;20207;-68
2022/05/31 07:32:25;;;;;;;2.30;0.70;;;10.50;99.90;;;;;;5074037;28;20181;-67
2022/05/31 07:34:54;;;;;;;1.90;0.77;;;10.50;99.90;;;;;;5074012;28;20201;-70
2022/05/31 07:37:21;;;;;;;0.63;0.60;;;10.50;99.90;;;;;;5073241;28;20213;-69
2022/05/31 07:39:49;;;;;;;1.73;0.80;;;10.40;99.90;;;;;;5073477;28;20698;-68
2022/05/31 07:42:17;;;;;;;2.80;0.87;;;10.50;99.90;;;;;;5073814;28;20199;-68
2022/05/31 07:44:45;;;;;;;6.73;0.97;;;10.50;99.90;;;;;;5073835;28;20184;-67
2022/05/31 07:47:12;;;;;;;1.17;0.90;;;10.50;99.90;;;;;;5073042;28;20216;-68
2022/05/31 07:49:40;;;;;;;1.60;0.93;;;10.50;99.90;;;;;;5073160;28;20177;-68
2022/05/31 07:52:09;;;;;;;2.13;1.40;;;10.60;99.90;;;;;;5071858;28;20590;-68
2022/05/31 07:54:37;;;;;;;2.70;0.93;;;10.50;99.90;;;;;;5073030;28;20663;-67
2022/05/31 07:57:05;;;;;;;1.93;1.30;;;10.50;99.90;;;;;;5073419;28;20180;-68
2022/05/31 07:59:35;;;;;;;1.20;0.90;;;10.50;99.90;;;;;;5073017;28;20193;-67
2022/05/31 08:02:03;;;;;;;1.87;0.77;;;10.50;99.90;;;;;;5073471;28;20198;-68
2022/05/31 08:04:31;;;;;;;0.70;0.60;;;10.50;99.90;;;;;;5073405;28;20181;-67
2022/05/31 08:06:59;;;;;;;2.27;1.00;;;10.60;99.90;;;;;;5071782;28;20220;-68
2022/05/31 08:09:28;;;;;;;1.27;0.90;;;10.60;99.90;;;;;;5072792;28;20170;-68
2022/05/31 08:11:55;;;;;;;3.83;1.10;;;10.50;99.90;;;;;;5073131;28;20184;-68
2022/05/31 08:14:23;;;;;;;1.70;1.33;;;10.50;99.90;;;;;;5073304;28;20186;-68
2022/05/31 08:16:53;;;;;;;2.63;1.40;;;10.40;99.90;;;;;;5072893;28;20651;-69
2022/05/31 08:19:23;;;;;;;1.40;0.77;;;10.40;99.90;;;;;;5072705;28;20192;-67
2022/05/31 08:21:50;;;;;;;1.30;1.20;;;10.30;99.90;;;;;;5072976;28;20208;-67
2022/05/31 08:24:17;;;;;;;2.23;1.47;;;10.20;99.90;;;;;;5072963;28;20539;-67
2022/05/31 08:26:45;;;;;;;2.00;0.97;;;10.10;99.90;;;;;;5072243;28;20210;-67
2022/05/31 08:29:12;;;;;;;1.10;1.00;;;10.00;99.90;;;;;;5072625;28;20553;-67
2022/05/31 08:31:40;;;;;;;2.00;1.10;;;10.10;99.90;;;;;;5071956;28;20182;-67
2022/05/31 08:34:08;;;;;;;2.80;1.10;;;10.10;99.90;;;;;;5072804;28;20179;-68
2022/05/31 08:36:36;;;;;;;2.37;1.13;;;10.10;99.90;;;;;;5072701;28;20649;-67
2022/05/31 08:39:03;;;;;;;1.60;1.10;;;10.10;99.90;;;;;;5072666;28;20222;-68
2022/05/31 08:41:36;;;;;;;1.47;1.10;;;10.00;99.90;;;;;;5072543;28;20219;-68
2022/05/31 08:44:12;;;;;;;3.23;1.20;;;10.00;99.90;;;;;;5073491;28;20200;-69
2022/05/31 08:46:50;;;;;;;4.10;0.90;;;9.90;99.90;;;;;;5072965;28;20215;-68
2022/05/31 08:49:18;;;;;;;3.20;1.10;;;9.90;99.90;;;;;;5073502;28;20720;-68
2022/05/31 08:52:11;;;;;;;4.93;1.63;;;10.00;99.90;;;;;;5072094;28;20187;-68
2022/05/31 08:57:43;;;;;;;2.97;1.63;;;9.80;99.90;;;;;;5053981;28;20184;-68
2022/05/31 09:00:20;;;;;;;2.23;1.60;;;9.60;99.90;;;;;;5071775;28;20179;-67
2022/05/31 09:03:16;;;;;;;2.93;1.70;;;9.50;99.90;;;;;;5071047;28;20176;-67
2022/05/31 09:06:03;;;;;;;2.63;1.37;;;9.40;99.90;;;;;;5070648;28;20203;-68
2022/05/31 09:08:40;;;;;;;8.77;1.40;;;9.30;99.90;;;;;;5069836;28;20689;-67
2022/05/31 09:11:14;;;;;;;4.50;2.03;;;9.20;99.90;;;;;;5072009;28;20182;-68
2022/05/31 09:13:57;;;;;;;15.47;9.77;;;9.20;99.90;;;;;;5072681;28;20638;-68
2022/05/31 09:16:33;;;;;;;6.33;3.30;;;9.10;99.90;;;;;;5071666;28;20584;-67
2022/05/31 09:19:07;;;;;;;7.37;4.57;;;9.00;99.90;;;;;;5070367;28;20250;-66
2022/05/31 09:21:42;;;;;;;6.40;2.63;;;8.90;99.90;;;;;;5070503;28;20225;-67
2022/05/31 09:24:13;;;;;;;3.77;2.40;;;9.00;99.90;;;;;;5072273;28;20188;-67
2022/05/31 09:27:07;;;;;;;3.53;2.13;;;8.90;99.90;;;;;;5072510;28;20568;-68
2022/05/31 09:30:01;;;;;;;2.53;1.83;;;8.70;99.90;;;;;;5072639;28;20187;-67
2022/05/31 09:32:43;;;;;;;3.00;1.73;;;8.50;99.90;;;;;;5072691;28;20221;-67
2022/05/31 09:35:45;;;;;;;3.33;1.80;;;8.50;99.90;;;;;;5072325;28;20546;-67
2022/05/31 09:38:55;;;;;;;7.13;2.77;;;8.40;99.90;;;;;;5073170;28;20175;-67
2022/05/31 09:41:32;;;;;;;4.47;2.60;;;8.40;99.90;;;;;;5072628;28;20191;-67
2022/05/31 09:44:31;;;;;;;6.73;1.83;;;8.30;99.90;;;;;;5072601;28;20234;-67
2022/05/31 09:47:24;;;;;;;3.53;1.90;;;8.40;99.90;;;;;;5052550;28;20307;-67
2022/05/31 09:49:53;;;;;;;19.83;11.00;;;8.50;99.90;;;;;;5055632;28;20195;-67
2022/05/31 09:52:52;;;;;;;6.37;3.47;;;8.60;99.90;;;;;;5072735;28;20221;-68
2022/05/31 09:58:28;;;;;;;2.83;1.50;;;8.80;99.90;;;;;;5072526;28;20259;-68
2022/05/31 10:01:04;;;;;;;5.00;2.00;;;8.90;99.90;;;;;;5072732;28;20195;-68
2022/05/31 10:03:55;;;;;;;16.00;5.47;;;9.10;99.90;;;;;;5072601;28;20278;-69
2022/05/31 10:06:24;;;;;;;3.40;1.60;;;9.10;99.90;;;;;;5072154;28;20250;-68
2022/05/31 10:08:54;;;;;;;4.33;1.67;;;9.40;99.90;;;;;;5072651;28;20266;-69
2022/05/31 10:11:32;;;;;;;1.97;1.30;;;9.30;99.90;;;;;;5071966;28;20213;-69
2022/05/31 10:14:02;;;;;;;2.47;1.77;;;9.20;99.90;;;;;;5072558;28;20183;-69
2022/05/31 10:16:37;;;;;;;4.23;1.27;;;9.10;99.90;;;;;;5070821;28;20192;-69
2022/05/31 10:19:10;;;;;;;3.23;1.40;;;8.80;99.90;;;;;;5071933;28;20235;-69
2022/05/31 10:21:43;;;;;;;2.07;1.63;;;8.80;99.90;;;;;;5072482;28;20182;-67
2022/05/31 10:24:22;;;;;;;3.77;2.00;;;8.60;99.90;;;;;;5073388;28;20184;-68
2022/05/31 10:27:05;;;;;;;5.67;1.40;;;8.50;99.90;;;;;;5076344;28;20219;-68
2022/05/31 10:29:59;;;;;;;3.93;1.90;;;8.60;99.90;;;;;;5076348;28;20180;-68
2022/05/31 10:32:42;;;;;;;3.27;1.03;;;8.50;99.90;;;;;;5076488;28;20274;-68
2022/05/31 10:35:14;;;;;;;2.87;1.20;;;8.60;99.90;;;;;;5075664;28;20565;-68
2022/05/31 10:38:00;;;;;;;3.20;1.60;;;8.60;99.90;;;;;;5075995;28;20212;-68
2022/05/31 10:40:50;;;;;;;2.47;1.03;;;8.60;99.90;;;;;;5076112;28;20641;-68
2022/05/31 10:43:21;;;;;;;2.07;0.97;;;9.00;99.90;;;;;;5076476;28;20254;-69
2022/05/31 10:45:48;;;;;;;1.10;0.80;;;9.40;99.90;;;;;;5075778;28;20200;-68
2022/05/31 10:48:15;;;;;;;2.67;1.20;;;9.70;99.90;;;;;;5076111;28;20212;-68
2022/05/31 10:51:24;;;;;;;1.20;0.73;;;10.10;99.90;;;;;;5074639;28;20180;-68
2022/05/31 10:54:00;;;;;;;0.90;0.70;;;10.50;99.90;;;;;;5070165;28;20215;-68
2022/05/31 10:57:02;;;;;;;1.53;0.60;;;10.90;99.90;;;;;;5075857;28;20276;-68
2022/05/31 10:59:41;;;;;;;1.73;0.67;;;11.00;99.90;;;;;;5067066;28;20191;-69
2022/05/31 11:02:40;;;;;;;1.00;0.60;;;11.10;99.90;;;;;;5075311;28;20649;-69
2022/05/31 11:05:12;;;;;;;0.70;0.60;;;11.20;99.90;;;;;;5075215;28;20620;-69
2022/05/31 11:11:29;;;;;;;1.63;1.30;;;11.30;99.90;;;;;;5055577;28;20196;-69
2022/05/31 11:14:07;;;;;;;2.30;0.60;;;11.20;99.90;;;;;;5013794;28;20660;-68
2022/05/31 11:16:50;;;;;;;2.13;0.70;;;11.10;99.90;;;;;;5049337;28;20549;-69
2022/05/31 11:19:44;;;;;;;2.10;0.60;;;11.00;99.90;;;;;;5054220;28;20247;-69
2022/05/31 11:22:24;;;;;;;1.97;0.60;;;11.10;99.90;;;;;;5054116;28;20178;-68
2022/05/31 11:25:28;;;;;;;0.70;0.60;;;11.20;99.90;;;;;;5054317;28;20201;-69
2022/05/31 11:28:07;;;;;;;2.20;0.57;;;11.10;99.90;;;;;;5054105;28;20196;-68
2022/05/31 11:30:59;;;;;;;0.80;0.63;;;11.00;99.90;;;;;;5053881;28;20187;-68
2022/05/31 11:33:32;;;;;;;0.87;0.60;;;11.00;99.90;;;;;;5032427;28;20216;-69
2022/05/31 11:36:05;;;;;;;0.60;0.60;;;10.90;99.90;;;;;;5053901;28;20171;-68
2022/05/31 11:38:42;;;;;;;1.00;0.70;;;10.80;99.90;;;;;;5054190;28;20196;-68
2022/05/31 11:41:33;;;;;;;2.10;0.93;;;10.70;99.90;;;;;;5060492;28;20179;-68
2022/05/31 11:44:20;;;;;;;5.37;0.93;;;10.60;99.90;;;;;;5072854;28;20219;-68
2022/05/31 11:47:09;;;;;;;1.40;0.90;;;10.60;99.90;;;;;;5071272;28;20197;-68
2022/05/31 11:49:43;;;;;;;2.63;0.70;;;10.60;99.90;;;;;;5072289;28;20708;-68
2022/05/31 11:52:45;;;;;;;3.60;0.60;;;10.50;99.90;;;;;;5073402;28;20188;-68
2022/05/31 11:55:37;;;;;;;1.00;0.73;;;10.50;99.90;;;;;;5065698;28;20221;-68
2022/05/31 11:58:15;;;;;;;1.73;0.90;;;10.50;99.90;;;;;;5073836;28;20673;-69
2022/05/31 12:01:01;;;;;;;1.57;0.63;;;10.60;99.90;;;;;;5073471;28;20173;-68
2022/05/31 12:04:06;;;;;;;1.83;0.60;;;10.70;99.90;;;;;;5053611;28;20178;-69
2022/05/31 12:07:06;;;;;;;1.20;0.80;;;10.60;99.90;;;;;;5045088;28;20235;-69
2022/05/31 12:09:51;;;;;;;3.00;0.80;;;10.50;99.90;;;;;;5060324;28;20192;-69
2022/05/31 12:12:31;;;;;;;3.30;0.93;;;10.50;99.90;;;;;;5073000;28;20548;-69
2022/05/31 12:15:21;;;;;;;1.10;0.80;;;10.50;99.90;;;;;;5073705;28;20216;-69
2022/05/31 12:18:01;;;;;;;1.27;0.70;;;10.40;99.90;;;;;;4964993;28;3103992;-69
2022/05/31 12:20:40;;;;;;;2.93;1.07;;;10.40;99.90;;;;;;5074672;28;20619;-67
2022/05/31 12:23:15;;;;;;;1.00;0.70;;;10.30;99.90;;;;;;5054374;28;20177;-67
2022/05/31 12:25:58;;;;;;;2.37;1.13;;;10.30;99.90;;;;;;5054185;28;20207;-67
2022/05/31 12:29:11;;;;;;;3.00;1.23;;;10.40;99.90;;;;;;5054522;28;20242;-68
2022/05/31 12:31:41;;;;;;;1.87;0.90;;;10.60;99.90;;;;;;5041178;28;20573;-67
2022/05/31 12:34:20;;;;;;;2.30;0.80;;;10.80;99.90;;;;;;5053958;28;20197;-68
2022/05/31 12:37:02;;;;;;;1.53;0.60;;;10.90;99.90;;;;;;5066099;28;20178;-68
2022/05/31 12:39:33;;;;;;;1.47;0.70;;;10.90;99.90;;;;;;5073955;28;20264;-69
2022/05/31 12:42:17;;;;;;;2.83;0.80;;;11.00;99.90;;;;;;5072234;28;20185;-69
2022/05/31 12:44:49;;;;;;;0.83;0.60;;;11.10;99.90;;;;;;5073923;28;20191;-68
2022/05/31 12:47:25;;;;;;;2.33;0.70;;;11.20;99.90;;;;;;5072804;28;20217;-68
2022/05/31 12:50:11;;;;;;;1.97;0.70;;;11.10;99.90;;;;;;5073679;28;20232;-68
2022/05/31 12:55:47;;;;;;;1.17;0.70;;;10.90;99.90;;;;;;5073695;28;20187;-68
2022/05/31 12:58:43;;;;;;;2.63;0.80;;;10.80;99.90;;;;;;5073643;28;20235;-69
2022/05/31 13:01:13;;;;;;;1.27;0.90;;;10.80;99.90;;;;;;5070044;28;20668;-69
2022/05/31 13:03:43;;;;;;;1.63;0.80;;;10.70;99.90;;;;;;5073891;28;20191;-69
2022/05/31 13:06:37;;;;;;;1.17;0.70;;;10.90;99.90;;;;;;5072487;28;20212;-68
2022/05/31 13:09:23;;;;;;;1.70;0.90;;;10.80;99.90;;;;;;5063727;28;20551;-68
2022/05/31 13:20:57;;;;;;;2.47;1.10;;;10.60;99.90;;;;;;5056992;28;20634;-68
2022/05/31 13:23:30;;;;;;;2.23;1.13;;;10.60;99.90;;;;;;5073108;28;20548;-68
2022/05/31 13:26:09;;;;;;;1.30;0.90;;;10.60;99.90;;;;;;5072570;28;20568;-68
2022/05/31 13:28:36;;;;;;;1.03;0.77;;;10.60;99.90;;;;;;5072666;28;20556;-68
2022/05/31 13:31:14;;;;;;;3.07;1.00;;;10.40;99.90;;;;;;5072606;28;20186;-69
2022/05/31 13:33:42;;;;;;;1.90;0.80;;;10.50;99.90;;;;;;5072345;28;20183;-68
2022/05/31 13:36:24;;;;;;;3.17;0.70;;;10.60;99.90;;;;;;5072933;28;20181;-68
2022/05/31 13:38:59;;;;;;;1.87;0.90;;;10.60;99.90;;;;;;5072868;28;20167;-68
2022/05/31 13:41:27;;;;;;;3.67;0.70;;;10.50;99.90;;;;;;5073073;28;20233;-68
2022/05/31 13:43:57;;;;;;;3.43;0.73;;;10.60;99.90;;;;;;5072351;28;20299;-68
2022/05/31 13:46:32;;;;;;;2.03;0.73;;;10.60;99.90;;;;;;5072639;28;20228;-68
2022/05/31 13:49:39;;;;;;;1.27;0.50;;;10.60;99.90;;;;;;5072166;28;20183;-68
2022/05/31 13:52:27;;;;;;;1.60;0.97;;;10.70;99.90;;;;;;5072883;28;20248;-68
2022/05/31 13:55:12;;;;;;;0.70;0.60;;;10.60;99.90;;;;;;5072814;28;20186;-69